Time;durP1;ratioP1;P1;durP2;ratioP2;P2;SDS_P1;SDS_P2;PMS_P1;PMS_P2;Temp;Humidity;BMP_temperature;BMP_pressure;BME280_temperature;BME280_humidity;BME280_pressure;Samples;Min_cycle;Max_cycle;Signal;HPM_P1;HPM_P2
2022/08/15 00:00:44;;;;;;;27.75;16.92;;;16.90;99.90;;;;;;5094987;28;20035;-59
2022/08/15 00:03:27;;;;;;;27.77;16.90;;;16.90;99.90;;;;;;5094797;28;20039;-59
2022/08/15 00:06:00;;;;;;;27.98;16.10;;;16.90;99.90;;;;;;5095008;28;20024;-58
2022/08/15 00:08:28;;;;;;;23.63;16.08;;;16.90;99.90;;;;;;5095075;28;20463;-58
2022/08/15 00:10:57;;;;;;;23.85;16.38;;;16.90;99.90;;;;;;5093902;28;20027;-58
2022/08/15 00:13:28;;;;;;;22.88;15.77;;;16.80;99.90;;;;;;5094673;28;20468;-58
2022/08/15 00:15:54;;;;;;;22.17;15.43;;;16.70;99.90;;;;;;5095045;28;20724;-58
2022/08/15 00:18:22;;;;;;;28.00;17.33;;;16.70;99.90;;;;;;5094719;28;20035;-58
2022/08/15 00:20:48;;;;;;;22.52;17.45;;;16.70;99.90;;;;;;5094932;28;20073;-58
2022/08/15 00:23:17;;;;;;;24.30;17.38;;;16.70;99.90;;;;;;5094555;28;20044;-58
2022/08/15 00:25:48;;;;;;;28.80;16.75;;;16.70;99.90;;;;;;5094670;28;20032;-58
2022/08/15 00:28:15;;;;;;;24.30;16.30;;;16.70;99.90;;;;;;5094611;28;20561;-58
2022/08/15 00:30:43;;;;;;;23.52;16.02;;;16.70;99.90;;;;;;5094198;28;20095;-58
2022/08/15 00:33:09;;;;;;;23.83;16.00;;;16.70;99.90;;;;;;5093353;28;20487;-58
2022/08/15 00:35:36;;;;;;;21.45;16.05;;;16.50;99.90;;;;;;5093439;28;20130;-58
2022/08/15 00:38:12;;;;;;;24.42;17.25;;;16.60;99.90;;;;;;5094581;28;20057;-58
2022/08/15 00:43:34;;;;;;;26.25;16.45;;;16.60;99.90;;;;;;5094590;28;20118;-58
2022/08/15 00:46:02;;;;;;;22.50;16.83;;;16.50;99.90;;;;;;5094581;28;20028;-58
2022/08/15 00:48:43;;;;;;;29.02;17.48;;;16.50;99.90;;;;;;5094660;28;20078;-58
2022/08/15 00:51:31;;;;;;;25.70;15.93;;;16.50;99.90;;;;;;5093247;28;20034;-58
2022/08/15 00:54:10;;;;;;;23.85;16.05;;;16.50;99.90;;;;;;5094695;28;20115;-58
2022/08/15 00:56:43;;;;;;;22.80;15.90;;;16.60;99.90;;;;;;5094529;28;20028;-58
2022/08/15 00:59:13;;;;;;;23.15;16.45;;;16.50;99.90;;;;;;5094339;28;20095;-58
2022/08/15 01:01:40;;;;;;;28.73;16.67;;;16.50;99.90;;;;;;5094428;28;20431;-58
2022/08/15 01:04:11;;;;;;;20.38;15.65;;;16.40;99.90;;;;;;5094307;28;20024;-58
2022/08/15 01:06:37;;;;;;;25.75;17.15;;;16.30;99.90;;;;;;5094336;28;20024;-58
2022/08/15 01:09:07;;;;;;;25.15;16.65;;;16.30;99.90;;;;;;5094350;28;20116;-58
2022/08/15 01:11:50;;;;;;;25.08;16.48;;;16.30;99.90;;;;;;5093403;28;20053;-58
2022/08/15 01:14:17;;;;;;;25.08;16.00;;;16.30;99.90;;;;;;5094139;28;20024;-58
2022/08/15 01:16:43;;;;;;;29.33;18.30;;;16.30;99.90;;;;;;5094137;28;20119;-58
2022/08/15 01:19:22;;;;;;;32.88;19.80;;;16.30;99.90;;;;;;5094411;28;20031;-58
2022/08/15 01:22:10;;;;;;;39.38;20.88;;;16.30;99.90;;;;;;5094026;28;20044;-58
2022/08/15 01:24:58;;;;;;;41.00;23.17;;;16.30;99.90;;;;;;5092813;28;20155;-58
2022/08/15 01:27:32;;;;;;;37.35;22.50;;;16.30;99.90;;;;;;5092866;28;20024;-58
2022/08/15 01:29:59;;;;;;;35.25;21.23;;;16.30;99.90;;;;;;5094144;28;20020;-58
2022/08/15 01:32:25;;;;;;;37.90;21.63;;;16.30;99.90;;;;;;5092836;28;20051;-58
2022/08/15 01:34:51;;;;;;;37.35;21.83;;;16.30;99.90;;;;;;5092816;28;20035;-58
2022/08/15 01:37:18;;;;;;;34.00;20.83;;;16.30;99.90;;;;;;5092735;28;20044;-58
2022/08/15 01:39:57;;;;;;;33.92;21.65;;;16.20;99.90;;;;;;5094004;28;20110;-58
2022/08/15 01:42:31;;;;;;;30.67;18.80;;;16.20;99.90;;;;;;5095359;28;20426;-58
2022/08/15 01:45:06;;;;;;;29.45;18.83;;;16.20;99.90;;;;;;5096423;28;20096;-58
2022/08/15 01:47:46;;;;;;;31.48;17.00;;;16.20;99.90;;;;;;5096423;28;20088;-58
2022/08/15 01:50:20;;;;;;;23.80;16.73;;;16.20;99.90;;;;;;5096277;28;20097;-58
2022/08/15 01:53:04;;;;;;;25.58;18.77;;;16.20;99.90;;;;;;5096333;28;20020;-58
2022/08/15 01:55:50;;;;;;;28.15;17.90;;;16.20;99.90;;;;;;5096273;28;20081;-58
2022/08/15 01:58:18;;;;;;;;;;;16.20;99.90;;;;;;5096422;28;20031;-58
2022/08/15 02:01:06;;;;;;;24.77;17.35;;;16.20;99.90;;;;;;5096208;28;19915;-58
2022/08/15 02:03:36;;;;;;;23.67;17.33;;;16.10;99.90;;;;;;5095887;28;20032;-58
2022/08/15 02:06:14;;;;;;;23.35;17.17;;;16.10;99.90;;;;;;5095987;28;20115;-58
2022/08/15 02:08:43;;;;;;;27.27;18.08;;;16.10;99.90;;;;;;5095972;28;20055;-58
2022/08/15 02:11:14;;;;;;;25.23;18.25;;;16.10;99.90;;;;;;5095953;28;20032;-58
2022/08/15 02:13:47;;;;;;;31.45;18.60;;;16.10;99.90;;;;;;5095901;28;20035;-58
2022/08/15 02:16:15;;;;;;;21.73;17.27;;;16.00;99.90;;;;;;5097205;28;20042;-58
2022/08/15 02:18:41;;;;;;;28.67;17.67;;;16.00;99.90;;;;;;5097066;28;20028;-58
2022/08/15 02:21:07;;;;;;;28.80;18.15;;;16.10;99.90;;;;;;5096957;28;20485;-58
2022/08/15 02:23:34;;;;;;;29.88;18.95;;;16.10;99.90;;;;;;5095377;28;20055;-58
2022/08/15 02:26:01;;;;;;;33.45;19.08;;;16.00;99.90;;;;;;5095685;28;20054;-58
2022/08/15 02:28:27;;;;;;;24.42;17.48;;;16.10;99.90;;;;;;5095644;28;20115;-58
2022/08/15 02:30:57;;;;;;;25.17;17.77;;;16.00;99.90;;;;;;5095583;28;20032;-58
2022/08/15 02:33:27;;;;;;;20.02;16.40;;;16.00;99.90;;;;;;5095541;28;20096;-58
2022/08/15 02:35:55;;;;;;;24.98;19.73;;;16.00;99.90;;;;;;5095426;28;20032;-58
2022/08/15 02:38:21;;;;;;;27.95;18.45;;;16.00;99.90;;;;;;5096741;28;20024;-58
2022/08/15 02:40:49;;;;;;;27.58;19.90;;;16.00;99.90;;;;;;5095450;28;20390;-58
2022/08/15 02:43:17;;;;;;;28.88;19.98;;;16.10;99.90;;;;;;5095253;28;20169;-58
2022/08/15 02:45:47;;;;;;;27.95;18.98;;;16.00;99.90;;;;;;5095348;28;20073;-58
2022/08/15 02:48:15;;;;;;;26.20;19.30;;;15.90;99.90;;;;;;5095058;28;20027;-58
2022/08/15 02:50:42;;;;;;;26.70;19.77;;;15.90;99.90;;;;;;5095166;28;20024;-58
2022/08/15 02:53:14;;;;;;;27.67;19.98;;;15.90;99.90;;;;;;5094795;28;20035;-58
2022/08/15 02:55:44;;;;;;;29.63;19.60;;;15.90;99.90;;;;;;5094933;28;20095;-58
2022/08/15 02:58:12;;;;;;;28.08;20.50;;;15.80;99.90;;;;;;5095207;28;20039;-58
2022/08/15 03:00:41;;;;;;;27.55;19.73;;;15.80;99.90;;;;;;5096222;28;20110;-58
2022/08/15 03:03:14;;;;;;;28.05;18.48;;;15.70;99.90;;;;;;5094899;28;20433;-58
2022/08/15 03:05:48;;;;;;;26.95;18.83;;;15.70;99.90;;;;;;5095038;28;20036;-58
2022/08/15 03:08:15;;;;;;;24.98;19.23;;;15.70;99.90;;;;;;5094490;28;20032;-58
2022/08/15 03:10:41;;;;;;;26.65;19.65;;;15.70;99.90;;;;;;5095078;28;20031;-58
2022/08/15 03:13:16;;;;;;;38.42;18.98;;;15.60;99.90;;;;;;5094767;28;20028;-58
2022/08/15 03:15:56;;;;;;;26.73;19.38;;;15.60;99.90;;;;;;5095815;28;20032;-58
2022/08/15 03:18:25;;;;;;;25.50;18.05;;;15.50;99.90;;;;;;5094745;28;20107;-58
2022/08/15 03:20:52;;;;;;;24.38;18.25;;;15.50;99.90;;;;;;5095861;28;20080;-58
2022/08/15 03:23:22;;;;;;;27.15;19.30;;;15.50;99.90;;;;;;5094277;28;20044;-58
2022/08/15 03:25:51;;;;;;;28.35;18.40;;;15.60;99.90;;;;;;5094423;28;20050;-58
2022/08/15 03:28:20;;;;;;;24.52;16.55;;;15.60;99.90;;;;;;5094517;28;20032;-58
2022/08/15 03:30:47;;;;;;;24.73;15.82;;;15.50;99.90;;;;;;5094299;28;20085;-58
2022/08/15 03:33:13;;;;;;;24.83;15.13;;;15.40;99.90;;;;;;5094448;28;20117;-58
2022/08/15 03:35:43;;;;;;;20.50;16.05;;;15.40;99.90;;;;;;5094359;28;20024;-58
2022/08/15 03:38:13;;;;;;;27.25;16.77;;;15.30;99.90;;;;;;5094235;28;20028;-58
2022/08/15 03:40:42;;;;;;;24.67;17.10;;;15.20;99.90;;;;;;5094462;28;20492;-58
2022/08/15 03:43:26;;;;;;;26.63;16.90;;;15.20;99.90;;;;;;5093969;28;20038;-58
2022/08/15 03:45:58;;;;;;;25.45;17.45;;;15.30;99.90;;;;;;5094131;28;20032;-58
2022/08/15 03:48:31;;;;;;;24.55;18.05;;;15.30;99.90;;;;;;5094526;28;20028;-58
2022/08/15 03:50:59;;;;;;;26.30;18.25;;;15.20;99.90;;;;;;5095131;28;20077;-58
2022/08/15 03:53:44;;;;;;;28.35;18.00;;;15.20;99.90;;;;;;5094045;28;20032;-58
2022/08/15 03:56:19;;;;;;;22.15;17.05;;;15.30;99.90;;;;;;5093916;28;20043;-58
2022/08/15 03:58:47;;;;;;;28.38;17.70;;;15.30;99.90;;;;;;5093861;28;20024;-58
2022/08/15 04:01:25;;;;;;;26.65;18.67;;;15.40;99.90;;;;;;5093897;28;20036;-58
2022/08/15 04:03:51;;;;;;;25.95;18.55;;;15.40;99.90;;;;;;5093796;28;20128;-57
2022/08/15 04:06:23;;;;;;;23.52;17.90;;;15.40;99.90;;;;;;5093009;28;20027;-58
2022/08/15 04:08:52;;;;;;;29.48;18.25;;;15.30;99.90;;;;;;5093650;28;20099;-58
2022/08/15 04:11:21;;;;;;;27.15;18.48;;;15.30;99.90;;;;;;5092833;28;20074;-57
2022/08/15 04:13:47;;;;;;;26.15;18.60;;;15.30;99.90;;;;;;5094888;28;20090;-58
2022/08/15 04:16:15;;;;;;;26.42;18.52;;;15.40;99.90;;;;;;5093714;28;20028;-58
2022/08/15 04:18:42;;;;;;;26.33;19.02;;;15.30;99.90;;;;;;5093591;28;20039;-58
2022/08/15 04:21:11;;;;;;;29.25;19.67;;;15.30;99.90;;;;;;5093429;28;20032;-58
2022/08/15 04:23:42;;;;;;;30.10;18.85;;;15.40;99.90;;;;;;5093388;28;20048;-58
2022/08/15 04:26:08;;;;;;;27.65;19.75;;;15.40;99.90;;;;;;5093330;28;20028;-57
2022/08/15 04:28:34;;;;;;;33.63;21.27;;;15.50;99.90;;;;;;5093433;28;20024;-58
2022/08/15 04:31:05;;;;;;;25.98;19.02;;;15.50;99.90;;;;;;5093470;28;20085;-58
2022/08/15 04:33:33;;;;;;;27.10;19.63;;;15.60;99.90;;;;;;5093234;28;20028;-58
2022/08/15 04:36:10;;;;;;;25.75;19.30;;;15.70;99.90;;;;;;5093563;28;20035;-58
2022/08/15 04:38:40;;;;;;;26.75;18.58;;;15.80;99.90;;;;;;5093533;28;20096;-57
2022/08/15 04:41:08;;;;;;;32.40;19.27;;;15.90;99.90;;;;;;5093298;28;20032;-58
2022/08/15 04:43:35;;;;;;;29.70;19.90;;;15.90;99.90;;;;;;5093237;28;20151;-58
2022/08/15 04:46:03;;;;;;;35.60;19.38;;;15.90;99.90;;;;;;5093164;28;20233;-57
2022/08/15 04:48:31;;;;;;;28.30;20.38;;;16.10;99.90;;;;;;5093117;28;20095;-58
2022/08/15 04:50:59;;;;;;;29.73;19.65;;;16.20;99.90;;;;;;5093209;28;20027;-58
2022/08/15 04:53:35;;;;;;;25.23;19.50;;;16.40;99.90;;;;;;5093043;28;20040;-58
2022/08/15 04:56:06;;;;;;;35.75;20.63;;;16.50;99.90;;;;;;5092945;28;20075;-58
2022/08/15 04:58:36;;;;;;;35.25;21.67;;;16.60;99.90;;;;;;5092987;28;20036;-58
2022/08/15 05:01:09;;;;;;;34.60;20.80;;;16.50;99.90;;;;;;5094225;28;20032;-58
2022/08/15 05:03:43;;;;;;;29.48;19.60;;;16.50;99.90;;;;;;5092921;28;20028;-58
2022/08/15 05:06:10;;;;;;;32.60;20.30;;;16.60;99.90;;;;;;5094222;28;20031;-58
2022/08/15 05:08:38;;;;;;;33.97;19.63;;;16.80;99.90;;;;;;5094000;28;20481;-58
2022/08/15 05:11:14;;;;;;;33.10;19.88;;;16.80;99.90;;;;;;5092049;28;20028;-58
2022/08/15 05:13:42;;;;;;;;;;;17.00;99.90;;;;;;5093695;28;20032;-58
2022/08/15 05:16:13;;;;;;;30.95;19.42;;;17.10;99.90;;;;;;5093366;28;19919;-58
2022/08/15 05:18:43;;;;;;;32.00;20.05;;;17.20;99.90;;;;;;5097090;28;20043;-58
2022/08/15 05:21:11;;;;;;;28.10;20.90;;;17.30;99.90;;;;;;5097044;28;20039;-58
2022/08/15 05:23:40;;;;;;;28.92;20.00;;;17.40;99.90;;;;;;5096340;28;20061;-58
2022/08/15 05:26:09;;;;;;;28.98;19.90;;;17.50;99.90;;;;;;5096667;28;20028;-58
2022/08/15 05:28:39;;;;;;;35.42;20.13;;;17.50;99.90;;;;;;5096834;28;20029;-58
2022/08/15 05:31:10;;;;;;;31.05;20.20;;;17.50;99.90;;;;;;5096495;28;20025;-58
2022/08/15 05:33:38;;;;;;;28.40;20.73;;;17.60;99.90;;;;;;5096700;28;20028;-58
2022/08/15 05:36:07;;;;;;;31.15;20.80;;;17.70;99.90;;;;;;5096403;28;20036;-58
2022/08/15 05:38:46;;;;;;;36.92;23.27;;;17.80;99.90;;;;;;5087929;28;20389;-58
2022/08/15 05:41:33;;;;;;;35.22;23.05;;;17.90;99.90;;;;;;5075102;28;20107;-58
2022/08/15 05:44:28;;;;;;;32.03;21.95;;;18.00;99.90;;;;;;5075804;28;20289;-58
2022/08/15 05:47:07;;;;;;;36.50;23.95;;;18.10;99.90;;;;;;5075907;28;20160;-58
2022/08/15 05:49:50;;;;;;;30.15;21.27;;;18.20;99.90;;;;;;5075022;28;20449;-58
2022/08/15 05:52:40;;;;;;;32.67;22.75;;;18.30;99.90;;;;;;5075131;28;20227;-58
2022/08/15 05:55:14;;;;;;;32.80;22.92;;;18.40;99.90;;;;;;5075833;28;20040;-58
2022/08/15 05:57:56;;;;;;;34.05;20.60;;;18.40;99.90;;;;;;5075749;28;20033;-58
2022/08/15 06:00:25;;;;;;;33.67;22.15;;;18.50;99.90;;;;;;5075846;28;20036;-58
2022/08/15 06:03:06;;;;;;;35.42;21.23;;;18.50;99.90;;;;;;5075779;28;20028;-58
2022/08/15 06:05:41;;;;;;;32.78;22.13;;;18.70;99.90;;;;;;5075387;28;20074;-58
2022/08/15 06:08:15;;;;;;;31.67;21.30;;;19.00;99.90;;;;;;5075333;28;20482;-58
2022/08/15 06:11:02;;;;;;;29.63;19.00;;;19.10;99.90;;;;;;5086145;28;20028;-58
2022/08/15 06:13:59;;;;;;;30.90;19.35;;;19.20;99.90;;;;;;5095647;28;20413;-58
2022/08/15 06:16:40;;;;;;;28.27;19.48;;;19.40;99.90;;;;;;5095541;28;20401;-58
2022/08/15 06:19:24;;;;;;;32.17;20.52;;;19.60;99.90;;;;;;5095495;28;20040;-58
2022/08/15 06:22:15;;;;;;;35.55;20.23;;;19.70;99.90;;;;;;5095173;28;20485;-58
2022/08/15 06:24:53;;;;;;;28.98;18.75;;;19.60;99.90;;;;;;5095657;28;20032;-58
2022/08/15 06:27:50;;;;;;;29.17;17.95;;;19.90;99.90;;;;;;5095244;28;20045;-58
2022/08/15 06:30:26;;;;;;;30.58;18.38;;;20.20;99.90;;;;;;5095473;28;20032;-58
2022/08/15 06:33:06;;;;;;;29.95;19.60;;;20.50;99.90;;;;;;5095501;28;20031;-58
2022/08/15 06:36:00;;;;;;;34.05;18.85;;;20.70;99.90;;;;;;5095463;28;20053;-58
2022/08/15 06:38:55;;;;;;;30.70;18.58;;;20.90;99.90;;;;;;5094941;28;20044;-58
2022/08/15 06:41:30;;;;;;;29.58;18.73;;;21.10;99.90;;;;;;5095048;28;20059;-58
2022/08/15 06:44:10;;;;;;;32.28;18.40;;;21.30;99.90;;;;;;5094977;28;20043;-58
2022/08/15 06:46:40;;;;;;;29.88;17.75;;;21.50;99.90;;;;;;5096654;28;20036;-58
2022/08/15 06:49:10;;;;;;;28.15;18.30;;;21.70;99.90;;;;;;5094980;28;20157;-58
2022/08/15 06:51:42;;;;;;;21.98;16.40;;;21.90;99.90;;;;;;5095155;28;20110;-58
2022/08/15 06:54:22;;;;;;;25.35;17.02;;;22.10;99.90;;;;;;5094909;28;20080;-58
2022/08/15 06:57:16;;;;;;;23.90;18.13;;;22.30;99.90;;;;;;5095037;28;20039;-58
2022/08/15 07:00:33;;;;;;;23.33;17.45;;;22.50;99.90;;;;;;5089757;28;20036;-58
2022/08/15 07:03:31;;;;;;;23.67;16.60;;;22.60;99.90;;;;;;5084387;28;20040;-58
2022/08/15 07:05:57;;;;;;;24.33;15.88;;;22.90;99.90;;;;;;5094312;28;20020;-58
2022/08/15 07:08:36;;;;;;;24.65;16.58;;;23.20;99.90;;;;;;5094451;28;20024;-58
2022/08/15 07:11:20;;;;;;;24.90;16.42;;;23.60;99.90;;;;;;5093828;28;20123;-58
2022/08/15 07:14:14;;;;;;;23.77;14.80;;;23.80;99.90;;;;;;5083594;28;20032;-58
2022/08/15 07:17:12;;;;;;;18.95;13.70;;;24.10;99.80;;;;;;5046092;28;20064;-58
2022/08/15 07:19:39;;;;;;;22.88;14.93;;;24.40;98.50;;;;;;5074381;28;20036;-58
2022/08/15 07:22:12;;;;;;;24.77;14.65;;;24.60;97.10;;;;;;5074299;28;20041;-58
2022/08/15 07:24:49;;;;;;;21.33;14.90;;;24.80;96.80;;;;;;5074290;28;20047;-58
2022/08/15 07:27:18;;;;;;;19.40;14.43;;;25.00;95.80;;;;;;5074178;28;20028;-58
2022/08/15 07:29:54;;;;;;;23.25;15.30;;;25.20;94.90;;;;;;5073869;28;20425;-58
2022/08/15 07:32:50;;;;;;;22.92;14.52;;;25.30;93.10;;;;;;5073554;28;20054;-58
2022/08/15 07:35:32;;;;;;;20.13;14.27;;;25.50;92.40;;;;;;5071812;28;20052;-58
2022/08/15 07:38:07;;;;;;;17.77;13.73;;;25.90;93.50;;;;;;5073673;28;20029;-58
2022/08/15 07:40:39;;;;;;;18.50;12.73;;;26.20;92.20;;;;;;5072895;28;20025;-58
2022/08/15 07:43:30;;;;;;;18.05;12.80;;;26.60;88.60;;;;;;5073687;28;20029;-58
2022/08/15 07:46:18;;;;;;;21.88;14.60;;;26.20;88.50;;;;;;5073445;28;20036;-58
2022/08/15 07:48:52;;;;;;;15.38;12.40;;;26.30;86.10;;;;;;5073716;28;20504;-58
2022/08/15 07:51:25;;;;;;;15.73;11.52;;;26.20;86.70;;;;;;5073066;28;20626;-58
2022/08/15 07:54:47;;;;;;;14.98;11.70;;;26.80;84.90;;;;;;5073744;28;20032;-59
2022/08/15 07:57:33;;;;;;;17.23;12.68;;;27.20;83.30;;;;;;5075118;28;20052;-59
2022/08/15 08:00:13;;;;;;;21.58;12.77;;;27.70;80.20;;;;;;5072736;28;20052;-59
2022/08/15 08:02:50;;;;;;;15.57;11.25;;;28.10;81.90;;;;;;5073157;28;20059;-59
2022/08/15 08:05:17;;;;;;;13.93;10.88;;;28.50;76.50;;;;;;5074527;28;20481;-59
2022/08/15 08:07:49;;;;;;;16.90;11.63;;;28.20;74.80;;;;;;5073116;28;20029;-59
2022/08/15 08:10:28;;;;;;;13.90;10.38;;;28.60;75.20;;;;;;5080615;28;20028;-59
2022/08/15 08:13:23;;;;;;;13.38;10.75;;;28.80;74.30;;;;;;5093365;28;20024;-59
2022/08/15 08:16:14;;;;;;;13.50;11.00;;;29.00;75.60;;;;;;5093520;28;20231;-59
2022/08/15 08:18:50;;;;;;;13.60;9.77;;;29.00;71.80;;;;;;5094669;28;20030;-59
2022/08/15 08:21:25;;;;;;;19.17;10.50;;;29.20;72.00;;;;;;5093208;28;20081;-59
2022/08/15 08:24:01;;;;;;;16.67;10.57;;;29.30;69.40;;;;;;5093479;28;20093;-59
2022/08/15 08:27:06;;;;;;;12.73;9.82;;;29.80;66.60;;;;;;5093282;28;20050;-59
2022/08/15 08:30:02;;;;;;;12.48;10.00;;;29.90;66.60;;;;;;5094393;28;20113;-59
2022/08/15 08:32:49;;;;;;;15.30;10.10;;;30.10;66.00;;;;;;5093346;28;20028;-59
2022/08/15 08:35:43;;;;;;;10.90;9.73;;;30.10;63.70;;;;;;5094161;28;20035;-59
2022/08/15 08:38:53;;;;;;;13.05;9.55;;;30.20;61.90;;;;;;5094496;28;20028;-59
2022/08/15 08:41:25;;;;;;;14.45;10.48;;;30.10;60.90;;;;;;5094331;28;20043;-59
2022/08/15 08:44:02;;;;;;;14.43;9.65;;;30.00;61.90;;;;;;5094123;28;20032;-60
2022/08/15 08:46:56;;;;;;;10.63;9.00;;;30.20;62.20;;;;;;5094468;28;20032;-60
2022/08/15 08:49:31;;;;;;;12.32;9.27;;;30.20;63.00;;;;;;5094539;28;20038;-60
2022/08/15 08:52:08;;;;;;;11.30;9.25;;;30.60;63.60;;;;;;5096610;28;20028;-60
2022/08/15 08:55:16;;;;;;;14.82;8.85;;;31.00;60.50;;;;;;5098617;28;20394;-60
2022/08/15 08:57:58;;;;;;;10.68;8.35;;;30.80;64.70;;;;;;5098366;28;20024;-60
2022/08/15 09:00:32;;;;;;;14.38;9.00;;;31.20;60.90;;;;;;5098462;28;20036;-60
2022/08/15 09:03:12;;;;;;;9.93;8.63;;;32.00;59.30;;;;;;5098303;28;20032;-60
2022/08/15 09:05:42;;;;;;;;;;;32.30;55.30;;;;;;5098643;28;20384;-60
2022/08/15 09:08:12;;;;;;;;;;;32.80;55.40;;;;;;5098694;28;19908;-60
2022/08/15 09:10:42;;;;;;;11.50;8.10;;;32.70;54.60;;;;;;5097175;28;19923;-60
2022/08/15 09:16:00;;;;;;;10.98;8.00;;;33.60;51.20;;;;;;5098181;28;20028;-60
2022/08/15 09:18:33;;;;;;;10.07;6.55;;;33.50;50.80;;;;;;5098045;28;20028;-60
2022/08/15 09:21:00;;;;;;;7.82;6.55;;;33.70;48.80;;;;;;5098141;28;20441;-60
2022/08/15 09:23:41;;;;;;;7.32;5.47;;;33.30;49.70;;;;;;5097771;28;20482;-60
2022/08/15 09:26:28;;;;;;;9.27;6.00;;;33.30;46.60;;;;;;5097821;28;20054;-60
2022/08/15 09:29:29;;;;;;;8.40;5.80;;;33.10;45.50;;;;;;5096939;28;20031;-60
2022/08/15 09:32:26;;;;;;;9.80;5.88;;;33.30;42.80;;;;;;5097847;28;20028;-60
2022/08/15 09:35:13;;;;;;;9.63;5.95;;;33.40;42.80;;;;;;5097822;28;20424;-60
2022/08/15 09:38:05;;;;;;;9.32;5.75;;;33.50;44.60;;;;;;5091434;28;20039;-60
2022/08/15 09:41:12;;;;;;;6.63;4.63;;;34.00;42.00;;;;;;5068639;28;20033;-60
2022/08/15 09:44:19;;;;;;;7.55;5.40;;;34.20;42.60;;;;;;5073452;28;20028;-60
2022/08/15 09:46:45;;;;;;;7.80;4.45;;;34.00;39.30;;;;;;5065556;28;20017;-60
2022/08/15 09:49:17;;;;;;;10.68;5.07;;;33.80;38.00;;;;;;5057592;28;20112;-60
2022/08/15 09:51:48;;;;;;;9.82;5.68;;;33.60;40.60;;;;;;5057848;28;20025;-60
2022/08/15 09:54:23;;;;;;;9.30;5.25;;;34.00;38.90;;;;;;5057444;28;20033;-60
2022/08/15 09:57:19;;;;;;;6.03;4.80;;;34.40;39.70;;;;;;5057076;28;20111;-60
2022/08/15 09:59:51;;;;;;;6.80;5.15;;;34.90;39.50;;;;;;5054999;28;20051;-60
2022/08/15 10:02:22;;;;;;;6.20;4.90;;;34.90;37.00;;;;;;5057750;28;20675;-61
2022/08/15 10:04:49;;;;;;;11.05;5.60;;;35.00;38.40;;;;;;5057808;28;20033;-60
2022/08/15 10:07:15;;;;;;;22.00;11.70;;;34.90;37.80;;;;;;5076752;28;20471;-60
2022/08/15 10:09:46;;;;;;;8.80;5.32;;;35.10;39.40;;;;;;5073334;28;20547;-60
2022/08/15 10:12:15;;;;;;;5.28;4.50;;;35.10;37.00;;;;;;5062176;28;20032;-60
2022/08/15 10:14:53;;;;;;;6.68;4.85;;;35.00;37.50;;;;;;5061712;28;20040;-60
2022/08/15 10:17:34;;;;;;;6.68;4.97;;;35.10;35.10;;;;;;5059172;28;20111;-60
2022/08/15 10:20:16;;;;;;;6.28;4.68;;;35.10;36.60;;;;;;5068151;28;20028;-60
2022/08/15 10:22:48;;;;;;;9.43;5.57;;;35.30;36.90;;;;;;5063551;28;20037;-61
2022/08/15 10:25:29;;;;;;;6.03;4.43;;;35.40;37.40;;;;;;5056488;28;20036;-61
2022/08/15 10:27:55;;;;;;;6.20;4.53;;;35.60;35.10;;;;;;5056373;28;20032;-61
2022/08/15 10:30:24;;;;;;;8.15;4.35;;;35.70;34.60;;;;;;5056473;28;20021;-61
2022/08/15 10:32:53;;;;;;;6.90;4.13;;;33.60;35.30;;;;;;5056431;28;20120;-61
2022/08/15 10:35:45;;;;;;;6.47;4.32;;;33.90;36.40;;;;;;5057026;28;20036;-60
2022/08/15 10:38:19;;;;;;;5.20;4.25;;;34.40;37.10;;;;;;5056191;28;20033;-60
2022/08/15 10:40:57;;;;;;;7.72;5.03;;;34.80;37.50;;;;;;5056341;28;20028;-60
2022/08/15 10:44:01;;;;;;;8.18;4.22;;;35.10;35.00;;;;;;5071277;28;20037;-61
2022/08/15 10:46:34;;;;;;;4.30;3.90;;;35.20;35.70;;;;;;5073815;28;20040;-61
2022/08/15 10:49:12;;;;;;;6.13;4.35;;;35.50;35.80;;;;;;5075922;28;20104;-61
2022/08/15 10:52:01;;;;;;;9.85;4.50;;;35.80;35.70;;;;;;5075925;28;20028;-61
2022/08/15 10:54:36;;;;;;;6.18;4.35;;;34.90;32.40;;;;;;5076191;28;20028;-61
2022/08/15 10:57:05;;;;;;;10.85;5.40;;;34.40;37.30;;;;;;5075473;28;20118;-61
2022/08/15 10:59:43;;;;;;;5.32;3.58;;;35.40;33.80;;;;;;5076030;28;20413;-61
2022/08/15 11:02:20;;;;;;;4.03;3.63;;;35.80;35.50;;;;;;5075640;28;20375;-61
2022/08/15 11:04:47;;;;;;;5.53;3.60;;;36.30;31.30;;;;;;5075872;28;20021;-61
2022/08/15 11:07:21;;;;;;;10.02;3.70;;;35.90;31.50;;;;;;5067455;28;20047;-61
2022/08/15 11:10:20;;;;;;;8.80;4.30;;;35.80;31.50;;;;;;5062141;28;20024;-61
2022/08/15 11:12:59;;;;;;;5.38;3.33;;;35.80;32.00;;;;;;5053134;28;20037;-61
2022/08/15 11:15:43;;;;;;;4.80;3.80;;;35.80;32.50;;;;;;5052623;28;20041;-61
2022/08/15 11:18:10;;;;;;;5.78;4.40;;;35.50;30.10;;;;;;5053098;28;20033;-61
2022/08/15 11:20:45;;;;;;;8.18;4.18;;;36.20;31.80;;;;;;5040023;28;20033;-61
2022/08/15 11:23:13;;;;;;;9.63;4.68;;;36.60;29.30;;;;;;5033439;28;20168;-61
2022/08/15 11:25:43;;;;;;;6.30;4.05;;;36.40;30.30;;;;;;5030552;28;20029;-61
2022/08/15 11:28:20;;;;;;;;;;;36.40;32.90;;;;;;5033852;28;20140;-61
2022/08/15 11:30:47;;;;;;;9.00;4.32;;;36.10;30.90;;;;;;5032564;28;19909;-61
2022/08/15 11:33:19;;;;;;;9.75;5.03;;;36.30;29.60;;;;;;5029999;28;20195;-61
2022/08/15 11:35:46;;;;;;;8.82;4.97;;;36.00;31.70;;;;;;5032093;28;20040;-61
2022/08/15 11:38:17;;;;;;;19.77;6.30;;;36.10;31.00;;;;;;5032977;28;20112;-61
2022/08/15 11:40:51;;;;;;;10.07;4.65;;;35.20;31.30;;;;;;5025250;28;20086;-61
2022/08/15 11:43:18;;;;;;;8.25;4.93;;;35.70;33.20;;;;;;5021184;28;20034;-61
2022/08/15 11:45:48;;;;;;;11.10;5.68;;;36.10;30.60;;;;;;5020946;28;20095;-61
2022/08/15 11:48:21;;;;;;;15.35;7.22;;;36.30;32.20;;;;;;5052078;28;20119;-61
2022/08/15 11:51:14;;;;;;;11.82;6.68;;;36.50;30.50;;;;;;5068917;28;20531;-61
2022/08/15 11:54:11;;;;;;;12.68;6.93;;;36.10;30.60;;;;;;5070372;28;20557;-61
2022/08/15 11:56:46;;;;;;;9.57;6.45;;;36.70;33.20;;;;;;5055542;28;20194;-61
2022/08/15 11:59:27;;;;;;;16.17;6.50;;;36.80;30.20;;;;;;5056592;28;20032;-61
2022/08/15 12:01:59;;;;;;;10.13;6.00;;;37.20;31.40;;;;;;5064011;28;20047;-61
2022/08/15 12:04:33;;;;;;;9.63;5.47;;;37.20;29.70;;;;;;5067779;28;20051;-61
2022/08/15 12:07:27;;;;;;;10.40;6.78;;;37.20;30.30;;;;;;5074535;28;20033;-61
2022/08/15 12:10:04;;;;;;;9.40;6.50;;;37.00;30.20;;;;;;5078229;28;20031;-61
2022/08/15 12:12:45;;;;;;;11.93;6.13;;;37.30;30.30;;;;;;5094776;28;20023;-61
2022/08/15 12:15:14;;;;;;;6.85;5.18;;;37.10;33.10;;;;;;5094699;28;20098;-61
2022/08/15 12:17:45;;;;;;;8.27;5.53;;;37.00;30.00;;;;;;5094755;28;20028;-61
2022/08/15 12:20:13;;;;;;;5.82;4.38;;;36.70;29.60;;;;;;5094619;28;20046;-61
2022/08/15 12:22:42;;;;;;;4.45;3.97;;;36.50;31.00;;;;;;5066995;28;20047;-61
2022/08/15 12:25:09;;;;;;;12.38;5.60;;;36.80;30.30;;;;;;5073654;28;20040;-61
2022/08/15 12:27:37;;;;;;;15.85;5.20;;;36.70;31.00;;;;;;5072969;28;20024;-61
2022/08/15 12:30:06;;;;;;;6.72;4.60;;;37.00;31.30;;;;;;5066892;28;20486;-61
2022/08/15 12:32:32;;;;;;;5.93;4.95;;;36.70;31.20;;;;;;5067112;28;20103;-61
2022/08/15 12:34:59;;;;;;;12.50;6.05;;;36.70;30.80;;;;;;5071313;28;20056;-61
2022/08/15 12:37:28;;;;;;;6.05;4.80;;;36.30;31.30;;;;;;5072128;28;20028;-61
2022/08/15 12:39:59;;;;;;;10.68;4.45;;;36.30;31.60;;;;;;5073713;28;20107;-61
2022/08/15 12:42:31;;;;;;;8.88;5.28;;;36.40;32.80;;;;;;5069714;28;20028;-61
2022/08/15 12:45:01;;;;;;;6.97;4.90;;;36.80;31.40;;;;;;5058879;28;20323;-61
2022/08/15 12:47:30;;;;;;;5.88;4.53;;;36.90;32.50;;;;;;5071190;28;20042;-61
2022/08/15 12:49:56;;;;;;;7.88;4.45;;;37.00;33.00;;;;;;5074233;28;20027;-61
2022/08/15 12:52:22;;;;;;;9.80;4.72;;;37.00;31.30;;;;;;5073650;28;20539;-61
2022/08/15 12:54:48;;;;;;;17.45;7.38;;;37.10;30.90;;;;;;5071432;28;20032;-61
2022/08/15 12:57:15;;;;;;;7.80;5.03;;;36.80;30.40;;;;;;5071484;28;20447;-61
2022/08/15 12:59:41;;;;;;;8.15;4.85;;;36.50;30.30;;;;;;5063523;28;20108;-61
2022/08/15 13:02:09;;;;;;;11.25;4.90;;;36.40;30.80;;;;;;5056259;28;20478;-61
2022/08/15 13:04:35;;;;;;;7.63;5.13;;;36.10;31.00;;;;;;5055026;28;20021;-61
2022/08/15 13:07:02;;;;;;;7.55;4.43;;;36.00;31.40;;;;;;5062910;28;20029;-61
2022/08/15 13:09:30;;;;;;;27.27;8.45;;;35.80;32.40;;;;;;5056203;28;20478;-61
2022/08/15 13:11:59;;;;;;;8.20;5.70;;;35.40;32.20;;;;;;5076906;28;20024;-61
2022/08/15 13:14:28;;;;;;;8.48;5.32;;;35.30;31.80;;;;;;5061666;28;20029;-61
2022/08/15 13:16:55;;;;;;;7.15;4.70;;;35.70;32.90;;;;;;5060821;28;20504;-61
2022/08/15 13:23:34;;;;;;;11.23;5.80;;;35.80;32.30;;;;;;5057210;28;20389;-61